| time (UTC) | temp F | wind direction | speed knots | gust knots | rain 1hr in | rain 24hr in | rain mn in | humidity % | barometer mb |
| 20260906140814 | 78 | 321 | 3.5 | 5.2 | 0.00 | 0.00 | 0.00 | 74 | 1013.2 |
| 20260906135817 | 77 | 165 | 2.6 | 3.5 | 0.00 | 0.00 | 0.00 | 76 | 1013.1 |
| 20260906134801 | 78 | 17 | 2.6 | 3.5 | 0.00 | 0.00 | 0.00 | 75 | 1013.2 |
| 20260906133749 | 78 | 343 | 0.9 | 2.6 | 0.00 | 0.00 | 0.00 | 75 | 1013.2 |
| 20260906132811 | 77 | 315 | 1.7 | 2.6 | 0.00 | 0.00 | 0.00 | 78 | 1013.2 |
| 20260906131755 | 76 | 286 | 1.7 | 2.6 | 0.00 | 0.00 | 0.00 | 79 | 1013.0 |
| 20260906130800 | 75 | 59 | 0.9 | 2.6 | 0.00 | 0.00 | 0.00 | 81 | 1013.1 |
| 20260906125745 | 75 | 327 | 3.5 | 4.3 | 0.00 | 0.00 | 0.00 | 82 | 1012.8 |
| 20260906124750 | 74 | 318 | 1.7 | 2.6 | 0.00 | 0.00 | 0.00 | 83 | 1012.7 |
| 20260906123753 | 74 | 48 | 2.6 | 4.3 | 0.00 | 0.00 | 0.00 | 84 | 1012.7 |
| 20260906122819 | 74 | 317 | 0.9 | 3.5 | 0.00 | 0.00 | 0.00 | 84 | 1012.6 |
| 20260906121756 | 74 | 9 | 1.7 | 2.6 | 0.00 | 0.00 | 0.00 | 84 | 1012.6 |
| 20260906120828 | 73 | 321 | 0.9 | 2.6 | 0.00 | 0.00 | 0.00 | 84 | 1012.5 |
| 20260906115752 | 73 | 354 | 0.9 | 1.7 | 0.00 | 0.00 | 0.00 | 84 | 1012.3 |
| 20260906114750 | 74 | 0.0 | 0.0 | 0.00 | 0.00 | 0.00 | 84 | 1012.2 | |
| 20260906113748 | 74 | 0.0 | 0.0 | 0.00 | 0.00 | 0.00 | 84 | 1012.1 | |
| 20260906112747 | 74 | 0.0 | 0.0 | 0.00 | 0.00 | 0.00 | 84 | 1012.0 | |
| 20260906111750 | 74 | 0.0 | 0.0 | 0.00 | 0.00 | 0.00 | 83 | 1012.1 | |
| 20260906110754 | 75 | 293 | 0.9 | 1.7 | 0.00 | 0.00 | 0.00 | 83 | 1011.8 |
| 20260906105758 | 75 | 302 | 0.0 | 1.7 | 0.00 | 0.00 | 0.00 | 83 | 1011.8 |
| 20260906104802 | 75 | 293 | 0.9 | 1.7 | 0.00 | 0.00 | 0.00 | 82 | 1011.7 |
| 20260906103748 | 75 | 304 | 0.0 | 0.9 | 0.00 | 0.00 | 0.00 | 82 | 1011.7 |
| 20260906102812 | 76 | 0.0 | 0.9 | 0.00 | 0.00 | 0.00 | 82 | 1011.8 | |
| 20260906101757 | 76 | 319 | 0.9 | 1.7 | 0.00 | 0.00 | 0.00 | 82 | 1011.6 |
| 20260906100759 | 76 | 23 | 0.0 | 1.7 | 0.00 | 0.00 | 0.00 | 82 | 1011.5 |
| 20260906095746 | 76 | 307 | 0.9 | 1.7 | 0.00 | 0.00 | 0.00 | 81 | 1011.4 |
| 20260906094750 | 77 | 0 | 0.9 | 1.7 | 0.00 | 0.00 | 0.00 | 81 | 1011.3 |
| 20260906093755 | 77 | 344 | 0.9 | 1.7 | 0.00 | 0.00 | 0.00 | 80 | 1011.2 |
| 20260906092758 | 77 | 326 | 0.9 | 2.6 | 0.00 | 0.00 | 0.00 | 80 | 1011.2 |
| 20260906091822 | 77 | 300 | 0.9 | 1.7 | 0.00 | 0.00 | 0.00 | 80 | 1011.1 |
| 20260906090750 | 78 | 315 | 0.9 | 1.7 | 0.00 | 0.00 | 0.00 | 80 | 1011.2 |
| 20260906085752 | 78 | 325 | 0.9 | 1.7 | 0.00 | 0.00 | 0.00 | 80 | 1011.1 |
| 20260906084756 | 78 | 0.0 | 0.0 | 0.00 | 0.00 | 0.00 | 80 | 1011.1 | |
| 20260906083800 | 78 | 322 | 0.9 | 1.7 | 0.00 | 0.00 | 0.00 | 80 | 1011.0 |
| 20260906082746 | 79 | 281 | 0.9 | 1.7 | 0.00 | 0.00 | 0.00 | 80 | 1010.9 |
| 20260906081750 | 79 | 68 | 0.0 | 1.7 | 0.00 | 0.00 | 0.00 | 80 | 1010.9 |
| 20260906080754 | 79 | 340 | 0.9 | 1.7 | 0.00 | 0.00 | 0.00 | 80 | 1010.9 |
| 20260906075758 | 80 | 126 | 1.7 | 2.6 | 0.00 | 0.00 | 0.00 | 80 | 1010.9 |
| 20260906074903 | 80 | 0.0 | 0.0 | 0.00 | 0.00 | 0.00 | 79 | 1011.0 | |
| 20260906073808 | 80 | 339 | 1.7 | 2.6 | 0.00 | 0.00 | 0.00 | 79 | 1010.9 |
| 20260906072753 | 80 | 113 | 0.9 | 0.9 | 0.00 | 0.00 | 0.00 | 79 | 1010.9 |
| 20260906071758 | 81 | 340 | 1.7 | 2.6 | 0.00 | 0.00 | 0.00 | 79 | 1010.8 |
| 20260906070754 | 81 | 315 | 0.9 | 1.7 | 0.00 | 0.00 | 0.00 | 78 | 1010.7 |
| 20260906065746 | 81 | 351 | 1.7 | 4.3 | 0.00 | 0.00 | 0.00 | 78 | 1010.9 |
| 20260906064750 | 82 | 23 | 0.9 | 2.6 | 0.00 | 0.00 | 0.00 | 77 | 1010.9 |
| 20260906063748 | 82 | 13 | 0.9 | 1.7 | 0.00 | 0.00 | 0.00 | 77 | 1010.8 |
| 20260906062747 | 82 | 336 | 1.7 | 4.3 | 0.00 | 0.00 | 0.00 | 76 | 1010.8 |
| 20260906061802 | 83 | 90 | 1.7 | 4.3 | 0.00 | 0.00 | 0.00 | 75 | 1010.9 |
| 20260906060750 | 83 | 48 | 1.7 | 4.3 | 0.00 | 0.00 | 0.00 | 74 | 1011.0 |
| 20260906055752 | 84 | 293 | 1.7 | 1.7 | 0.00 | 0.00 | 0.00 | 73 | 1010.9 |
| 20260906054756 | 84 | 0.0 | 0.0 | 0.00 | 0.00 | 0.00 | 72 | 1011.0 | |
| 20260906053800 | 84 | 223 | 1.7 | 4.3 | 0.00 | 0.00 | 0.00 | 72 | 1010.9 |
| 20260906052747 | 84 | 270 | 0.9 | 2.6 | 0.00 | 0.00 | 0.00 | 71 | 1010.9 |
| 20260906051751 | 84 | 283 | 2.6 | 3.5 | 0.00 | 0.00 | 0.00 | 71 | 1010.9 |
| 20260906050755 | 84 | 313 | 0.9 | 2.6 | 0.00 | 0.00 | 0.00 | 71 | 1010.7 |
| 20260906045759 | 84 | 323 | 0.9 | 2.6 | 0.00 | 0.00 | 0.00 | 71 | 1010.6 |
| 20260906044827 | 84 | 0.0 | 0.0 | 0.00 | 0.00 | 0.00 | 71 | 1010.4 | |
| 20260906043749 | 84 | 0.0 | 0.0 | 0.00 | 0.00 | 0.00 | 70 | 1010.4 | |
| 20260906042753 | 85 | 0.0 | 0.0 | 0.00 | 0.00 | 0.00 | 69 | 1010.4 | |
| 20260906041757 | 85 | 0.0 | 0.0 | 0.00 | 0.00 | 0.00 | 67 | 1010.3 | |
| 20260906040801 | 86 | 0.0 | 0.0 | 0.00 | 0.00 | 0.00 | 66 | 1010.3 | |
| 20260906035748 | 86 | 0.0 | 0.0 | 0.00 | 0.00 | 0.00 | 66 | 1010.1 | |
| 20260906034753 | 86 | 0.0 | 0.0 | 0.00 | 0.00 | 0.00 | 65 | 1010.1 | |
| 20260906033754 | 87 | 338 | 0.9 | 1.7 | 0.00 | 0.00 | 0.00 | 64 | 1010.1 |
| 20260906032759 | 87 | 315 | 0.9 | 2.6 | 0.00 | 0.00 | 0.00 | 64 | 1010.0 |
| 20260906031804 | 87 | 0.0 | 0.0 | 0.00 | 0.00 | 0.00 | 63 | 1009.9 | |
| 20260906030749 | 87 | 277 | 0.9 | 1.7 | 0.00 | 0.00 | 0.00 | 62 | 1009.8 |
| 20260906025753 | 87 | 299 | 2.6 | 3.5 | 0.00 | 0.00 | 0.00 | 62 | 1009.6 |
| 20260906024757 | 87 | 0.0 | 0.0 | 0.00 | 0.00 | 0.00 | 62 | 1009.5 | |
| 20260906023803 | 86 | 0.0 | 0.0 | 0.00 | 0.00 | 0.00 | 62 | 1009.4 | |
| 20260906022747 | 86 | 0.0 | 0.0 | 0.00 | 0.00 | 0.00 | 61 | 1009.4 | |
| 20260906021751 | 86 | 0.0 | 0.0 | 0.00 | 0.00 | 0.00 | 61 | 1009.3 | |
| 20260906020755 | 86 | 0.0 | 0.0 | 0.00 | 0.00 | 0.00 | 61 | 1009.1 | |
| 20260906015755 | 87 | 0.0 | 0.0 | 0.00 | 0.00 | 0.00 | 60 | 1008.9 | |
| 20260906014745 | 87 | 0.0 | 0.0 | 0.00 | 0.00 | 0.00 | 59 | 1008.9 | |
| 20260906013749 | 88 | 0.0 | 0.0 | 0.00 | 0.00 | 0.00 | 59 | 1008.8 | |
| 20260906012809 | 88 | 0.0 | 0.0 | 0.00 | 0.00 | 0.00 | 58 | 1008.6 | |
| 20260906011746 | 89 | 0.0 | 0.0 | 0.00 | 0.00 | 0.00 | 57 | 1008.6 | |
| 20260906010802 | 89 | 0.0 | 0.0 | 0.00 | 0.00 | 0.00 | 56 | 1008.4 | |
| 20260906005749 | 90 | 0.0 | 0.0 | 0.00 | 0.00 | 0.00 | 56 | 1008.4 | |
| 20260906004752 | 91 | 0.0 | 0.0 | 0.00 | 0.00 | 0.00 | 55 | 1008.4 | |
| 20260906003756 | 91 | 0.0 | 0.0 | 0.00 | 0.00 | 0.00 | 54 | 1008.4 | |
| 20260906002800 | 92 | 0.0 | 0.0 | 0.00 | 0.00 | 0.00 | 52 | 1008.4 | |
| 20260906001746 | 93 | 0.0 | 0.0 | 0.00 | 0.00 | 0.00 | 51 | 1008.2 | |
| 20260906000750 | 93 | 0.0 | 0.0 | 0.00 | 0.00 | 0.00 | 50 | 1008.2 | |
| 20260905235755 | 94 | 0.0 | 0.0 | 0.00 | 0.00 | 0.00 | 49 | 1008.4 | |
| 20260905234759 | 95 | 75 | 0.9 | 1.7 | 0.00 | 0.00 | 0.00 | 49 | 1008.4 |
| 20260905233801 | 95 | 0.0 | 0.0 | 0.00 | 0.00 | 0.00 | 48 | 1008.4 | |
| 20260905232749 | 95 | 328 | 1.7 | 2.6 | 0.00 | 0.00 | 0.00 | 46 | 1008.4 |
| 20260905231812 | 96 | 0.0 | 0.0 | 0.00 | 0.00 | 0.00 | 47 | 1008.4 | |
| 20260905230837 | 97 | 314 | 1.7 | 2.6 | 0.00 | 0.00 | 0.00 | 45 | 1008.4 |
| 20260905225800 | 97 | 18 | 1.7 | 2.6 | 0.00 | 0.00 | 0.00 | 43 | 1008.4 |
| 20260905224746 | 98 | 323 | 2.6 | 2.6 | 0.00 | 0.00 | 0.00 | 41 | 1008.1 |
| 20260905223750 | 99 | 292 | 1.7 | 3.5 | 0.00 | 0.00 | 0.00 | 41 | 1008.1 |
| 20260905222754 | 99 | 282 | 3.5 | 4.3 | 0.00 | 0.00 | 0.00 | 41 | 1008.1 |
| 20260905221758 | 99 | 320 | 1.7 | 2.6 | 0.00 | 0.00 | 0.00 | 41 | 1008.2 |
| 20260905220802 | 99 | 316 | 2.6 | 3.5 | 0.00 | 0.00 | 0.00 | 40 | 1008.1 |
| 20260905215749 | 99 | 293 | 3.5 | 5.2 | 0.00 | 0.00 | 0.00 | 41 | 1008.2 |
| 20260905214752 | 99 | 344 | 3.5 | 5.2 | 0.00 | 0.00 | 0.00 | 41 | 1008.1 |
| 20260905213756 | 99 | 301 | 2.6 | 3.5 | 0.00 | 0.00 | 0.00 | 42 | 1008.1 |
| 20260905212820 | 99 | 307 | 4.3 | 7.0 | 0.00 | 0.00 | 0.00 | 41 | 1008.1 |
| 20260905211746 | 100 | 327 | 4.3 | 6.1 | 0.00 | 0.00 | 0.00 | 41 | 1008.2 |
| 20260905210750 | 100 | 308 | 3.5 | 5.2 | 0.00 | 0.00 | 0.00 | 41 | 1008.4 |
| 20260905205754 | 100 | 293 | 3.5 | 6.1 | 0.00 | 0.00 | 0.00 | 42 | 1008.6 |
| 20260905204812 | 99 | 331 | 6.1 | 9.6 | 0.00 | 0.00 | 0.00 | 42 | 1008.6 |
| 20260905203750 | 100 | 337 | 3.5 | 5.2 | 0.00 | 0.00 | 0.00 | 39 | 1008.6 |
| 20260905202748 | 100 | 314 | 1.7 | 3.5 | 0.00 | 0.00 | 0.00 | 40 | 1008.6 |
| 20260905201746 | 101 | 311 | 4.3 | 6.1 | 0.00 | 0.00 | 0.00 | 39 | 1008.8 |
| 20260905200838 | 101 | 320 | 3.5 | 4.3 | 0.00 | 0.00 | 0.00 | 38 | 1008.8 |
| 20260905195803 | 102 | 290 | 2.6 | 4.3 | 0.00 | 0.00 | 0.00 | 38 | 1008.9 |
| 20260905194807 | 101 | 287 | 4.3 | 7.8 | 0.00 | 0.00 | 0.00 | 38 | 1009.1 |
| 20260905193750 | 102 | 291 | 2.6 | 4.3 | 0.00 | 0.00 | 0.00 | 38 | 1009.2 |
| 20260905192755 | 101 | 285 | 3.5 | 5.2 | 0.00 | 0.00 | 0.00 | 38 | 1009.4 |
| 20260905191759 | 102 | 325 | 2.6 | 3.5 | 0.00 | 0.00 | 0.00 | 38 | 1009.6 |
| 20260905190745 | 103 | 308 | 3.5 | 5.2 | 0.00 | 0.00 | 0.00 | 38 | 1009.6 |
| 20260905185749 | 102 | 323 | 4.3 | 7.8 | 0.00 | 0.00 | 0.00 | 38 | 1009.6 |
| 20260905184754 | 103 | 341 | 2.6 | 3.5 | 0.00 | 0.00 | 0.00 | 38 | 1009.9 |
| 20260905183758 | 103 | 295 | 2.6 | 4.3 | 0.00 | 0.00 | 0.00 | 40 | 1009.9 |
| 20260905182802 | 102 | 310 | 2.6 | 3.5 | 0.00 | 0.00 | 0.00 | 41 | 1010.0 |
| 20260905181749 | 101 | 308 | 2.6 | 4.3 | 0.00 | 0.00 | 0.00 | 40 | 1010.1 |
| 20260905180811 | 101 | 342 | 3.5 | 6.1 | 0.00 | 0.00 | 0.00 | 40 | 1010.1 |
| 20260905175817 | 101 | 327 | 2.6 | 5.2 | 0.00 | 0.00 | 0.00 | 42 | 1010.1 |
| 20260905174759 | 101 | 345 | 3.5 | 6.1 | 0.00 | 0.00 | 0.00 | 43 | 1010.3 |
| 20260905173746 | 100 | 298 | 2.6 | 3.5 | 0.00 | 0.00 | 0.00 | 42 | 1010.3 |
| 20260905172749 | 100 | 288 | 1.7 | 2.6 | 0.00 | 0.00 | 0.00 | 44 | 1010.4 |
| 20260905171815 | 99 | 5 | 2.6 | 4.3 | 0.00 | 0.00 | 0.00 | 44 | 1010.6 |
| 20260905170758 | 99 | 334 | 3.5 | 5.2 | 0.00 | 0.00 | 0.00 | 45 | 1010.8 |
| 20260905165802 | 98 | 307 | 2.6 | 4.3 | 0.00 | 0.00 | 0.00 | 45 | 1010.8 |
| 20260905164748 | 98 | 304 | 3.5 | 5.2 | 0.00 | 0.00 | 0.00 | 46 | 1010.9 |
| 20260905163753 | 97 | 74 | 1.7 | 2.6 | 0.00 | 0.00 | 0.00 | 48 | 1010.9 |
| 20260905162756 | 98 | 307 | 2.6 | 3.5 | 0.00 | 0.00 | 0.00 | 49 | 1011.0 |
| 20260905161820 | 96 | 303 | 1.7 | 2.6 | 0.00 | 0.00 | 0.00 | 50 | 1011.1 |
| 20260905160746 | 96 | 352 | 2.6 | 4.3 | 0.00 | 0.00 | 0.00 | 49 | 1011.1 |
| 20260905155750 | 96 | 3 | 1.7 | 2.6 | 0.00 | 0.00 | 0.00 | 50 | 1011.2 |
| 20260905154754 | 96 | 322 | 4.3 | 5.2 | 0.00 | 0.00 | 0.00 | 49 | 1011.2 |
| 20260905153754 | 95 | 291 | 2.6 | 3.5 | 0.00 | 0.00 | 0.00 | 52 | 1011.2 |
| 20260905152812 | 94 | 270 | 1.7 | 2.6 | 0.00 | 0.00 | 0.00 | 54 | 1011.2 |
| 20260905151749 | 93 | 292 | 2.6 | 5.2 | 0.00 | 0.00 | 0.00 | 55 | 1011.3 |
| 20260905150747 | 92 | 332 | 3.5 | 4.3 | 0.00 | 0.00 | 0.00 | 56 | 1011.3 |
| 20260905145757 | 92 | 318 | 3.5 | 5.2 | 0.00 | 0.00 | 0.00 | 56 | 1011.2 |
| 20260905144801 | 91 | 321 | 1.7 | 2.6 | 0.00 | 0.00 | 0.00 | 60 | 1011.1 |
| 20260905143746 | 89 | 322 | 0.9 | 2.6 | 0.00 | 0.00 | 0.00 | 60 | 1011.1 |
| 20260905142811 | 90 | 0.0 | 1.7 | 0.00 | 0.00 | 0.00 | 60 | 1011.1 | |
| 20260905141815 | 89 | 328 | 1.7 | 1.7 | 0.00 | 0.00 | 0.00 | 61 | 1011.2 |